createdAt,value
2024-05-09T00:00:57.742Z,9.747499
2024-05-09T00:01:57.739Z,9.747486
2024-05-09T00:02:57.749Z,9.747367
2024-05-09T00:03:57.745Z,9.747662
2024-05-09T00:04:57.837Z,9.747451
2024-05-09T00:05:57.750Z,9.747198
2024-05-09T00:06:57.669Z,9.747280
2024-05-09T00:07:58.238Z,9.747450
2024-05-09T00:08:57.646Z,9.747388
2024-05-09T00:09:57.639Z,9.747506
2024-05-09T00:10:57.665Z,9.747551
2024-05-09T00:11:57.749Z,9.747594
2024-05-09T00:12:57.643Z,9.747491
2024-05-09T00:13:57.646Z,9.747642
2024-05-09T00:14:57.603Z,9.747572
2024-05-09T00:15:57.601Z,9.747655
2024-05-09T00:16:57.616Z,9.747662
2024-05-09T00:17:57.760Z,9.747536
2024-05-09T00:18:57.648Z,9.747702
2024-05-09T00:19:57.614Z,9.747641
2024-05-09T00:20:57.663Z,9.747538
2024-05-09T00:21:57.563Z,9.747776
2024-05-09T00:22:57.605Z,9.747742
2024-05-09T00:23:57.534Z,9.747718
2024-05-09T00:24:57.525Z,9.747740
2024-05-09T00:25:57.548Z,9.747781
2024-05-09T00:26:57.509Z,9.747817
2024-05-09T00:27:57.544Z,9.747602
2024-05-09T00:28:57.529Z,9.747529
2024-05-09T00:29:57.487Z,9.747715
2024-05-09T00:30:57.487Z,9.747621
2024-05-09T00:31:57.639Z,9.747612
2024-05-09T00:32:57.639Z,9.747528
2024-05-09T00:33:57.772Z,9.747479
2024-05-09T00:34:57.493Z,9.747419
2024-05-09T00:35:57.440Z,9.747615
2024-05-09T00:36:57.458Z,9.747778
2024-05-09T00:37:57.483Z,9.747905
2024-05-09T00:38:57.434Z,9.747733
2024-05-09T00:39:57.500Z,9.747485
2024-05-09T00:40:58.447Z,9.747693
2024-05-09T00:41:57.391Z,9.747608
2024-05-09T00:42:57.415Z,9.747736
2024-05-09T00:43:57.472Z,9.747735
2024-05-09T00:44:57.365Z,9.747518
2024-05-09T00:45:57.381Z,9.747584
2024-05-09T00:46:57.388Z,9.747628
2024-05-09T00:47:57.598Z,9.747623
2024-05-09T00:48:57.494Z,9.747723
2024-05-09T00:49:57.350Z,9.747690
2024-05-09T00:50:57.376Z,9.747621
2024-05-09T00:51:57.313Z,9.747578
2024-05-09T00:52:57.368Z,9.747601
2024-05-09T00:53:57.307Z,9.747608
2024-05-09T00:54:57.289Z,9.747656
2024-05-09T00:55:57.286Z,9.747514
2024-05-09T00:56:57.275Z,9.747610
2024-05-09T00:57:57.284Z,9.747744
2024-05-09T00:58:57.328Z,9.747653
2024-05-09T00:59:57.247Z,9.747722
2024-05-09T01:00:57.338Z,9.747677
2024-05-09T01:01:57.327Z,9.747460
2024-05-09T01:02:57.303Z,9.747476
2024-05-09T01:03:57.350Z,9.747577
2024-05-09T01:04:57.295Z,9.747520
2024-05-09T01:05:57.401Z,9.747592
2024-05-09T01:06:57.186Z,9.747487
2024-05-09T01:07:57.234Z,9.747543
2024-05-09T01:08:57.179Z,9.747461
2024-05-09T01:09:57.165Z,9.747480
2024-05-09T01:10:57.326Z,9.747465
2024-05-09T01:11:57.214Z,9.747578
2024-05-09T01:12:57.177Z,9.747590
2024-05-09T01:13:57.165Z,9.747562
2024-05-09T01:14:57.137Z,9.747532
2024-05-09T01:15:57.125Z,9.747659
2024-05-09T01:16:57.153Z,9.747708
2024-05-09T01:17:57.548Z,9.747736
2024-05-09T01:18:57.176Z,9.747620
2024-05-09T01:19:57.150Z,9.747523
2024-05-09T01:20:57.112Z,9.747603
2024-05-09T01:21:57.109Z,9.747806
2024-05-09T01:22:57.114Z,9.747724
2024-05-09T01:23:57.065Z,9.747648
2024-05-09T01:24:57.050Z,9.747711
2024-05-09T01:25:57.086Z,9.747616
2024-05-09T01:26:57.085Z,9.747630
2024-05-09T01:27:57.093Z,9.747658
2024-05-09T01:28:57.055Z,9.747597
2024-05-09T01:29:57.028Z,9.747565
2024-05-09T01:30:57.016Z,9.747651
2024-05-09T01:31:57.132Z,9.747528
2024-05-09T01:32:57.178Z,9.747554
2024-05-09T01:33:57.100Z,9.747551
2024-05-09T01:34:56.997Z,9.747620
2024-05-09T01:35:57.020Z,9.747522
2024-05-09T01:36:56.982Z,9.747502
2024-05-09T01:37:57.000Z,9.747414
2024-05-09T01:38:56.954Z,9.747535
2024-05-09T01:39:56.941Z,9.747488
2024-05-09T01:40:56.966Z,9.747479
2024-05-09T01:41:56.950Z,9.747528
2024-05-09T01:42:56.924Z,9.747494
2024-05-09T01:43:56.948Z,9.747478
2024-05-09T01:44:56.905Z,9.747448
2024-05-09T01:45:56.896Z,9.747527
2024-05-09T01:46:57.004Z,9.747461
2024-05-09T01:47:56.985Z,9.747504
2024-05-09T01:48:56.997Z,9.747546
2024-05-09T01:49:56.921Z,9.747608
2024-05-09T01:50:56.908Z,9.747470
2024-05-09T01:51:56.855Z,9.747443
2024-05-09T01:52:56.887Z,9.747496
2024-05-09T01:53:56.840Z,9.747604
2024-05-09T01:54:57.015Z,9.747509
2024-05-09T01:55:56.910Z,9.747390
2024-05-09T01:56:57.817Z,9.747403
2024-05-09T01:57:56.824Z,9.747505
2024-05-09T01:58:56.839Z,9.747532
2024-05-09T01:59:56.810Z,9.747555
2024-05-09T02:00:56.822Z,9.747616
2024-05-09T02:01:57.887Z,9.747681
2024-05-09T02:02:56.917Z,9.747561
2024-05-09T02:03:56.944Z,9.747560
2024-05-09T02:04:56.835Z,9.747581
2024-05-09T02:05:56.794Z,9.747517
2024-05-09T02:06:56.755Z,9.747534
2024-05-09T02:07:56.766Z,9.747549
2024-05-09T02:08:56.755Z,9.747532
2024-05-09T02:09:56.738Z,9.747473
2024-05-09T02:10:56.789Z,9.747519
2024-05-09T02:11:56.813Z,9.747566
2024-05-09T02:12:56.687Z,9.747555
2024-05-09T02:13:56.752Z,9.747601
2024-05-09T02:14:56.742Z,9.747540
2024-05-09T02:15:56.671Z,9.747521
2024-05-09T02:16:56.669Z,9.747555
2024-05-09T02:17:57.018Z,9.747528
2024-05-09T02:18:56.742Z,9.747546
2024-05-09T02:19:56.673Z,9.747512
2024-05-09T02:20:56.691Z,9.747528
2024-05-09T02:21:56.630Z,9.747554
2024-05-09T02:22:56.633Z,9.747600
2024-05-09T02:23:56.630Z,9.747392
2024-05-09T02:24:56.595Z,9.747561
2024-05-09T02:25:56.619Z,9.747465
2024-05-09T02:26:56.581Z,9.747495
2024-05-09T02:27:56.602Z,9.747704
2024-05-09T02:28:56.624Z,9.747540
2024-05-09T02:29:56.576Z,9.747531
2024-05-09T02:30:56.559Z,9.747549
2024-05-09T02:31:57.675Z,9.747523
2024-05-09T02:32:56.727Z,9.747531
2024-05-09T02:33:56.892Z,9.747553
2024-05-09T02:34:56.584Z,9.747657
2024-05-09T02:35:56.528Z,9.747591
2024-05-09T02:36:56.559Z,9.747609
2024-05-09T02:37:56.574Z,9.747703
2024-05-09T02:38:56.495Z,9.747623
2024-05-09T02:39:56.480Z,9.747459
2024-05-09T02:40:56.542Z,9.747627
2024-05-09T02:41:56.477Z,9.747560
2024-05-09T02:42:56.487Z,9.747608
2024-05-09T02:43:56.505Z,9.747611
2024-05-09T02:44:56.458Z,9.747526
2024-05-09T02:45:57.273Z,9.747461
2024-05-09T02:46:56.491Z,9.747489
2024-05-09T02:47:56.726Z,9.747531
2024-05-09T02:48:56.465Z,9.747561
2024-05-09T02:49:56.437Z,9.747484
2024-05-09T02:50:56.472Z,9.747437
2024-05-09T02:51:56.429Z,9.747642
2024-05-09T02:52:56.462Z,9.747639
2024-05-09T02:53:56.388Z,9.747630
2024-05-09T02:54:56.375Z,9.747492
2024-05-09T02:55:56.405Z,9.747403
2024-05-09T02:56:56.384Z,9.747463
2024-05-09T02:57:56.345Z,9.747508
2024-05-09T02:58:56.423Z,9.747447
2024-05-09T02:59:56.342Z,9.747447
2024-05-09T03:00:56.359Z,9.747431
2024-05-09T03:01:56.425Z,9.747467
2024-05-09T03:02:56.459Z,9.747448
2024-05-09T03:03:56.479Z,9.747349
2024-05-09T03:04:56.478Z,9.747509
2024-05-09T03:05:56.296Z,9.747418
2024-05-09T03:06:56.313Z,9.747431
2024-05-09T03:07:56.325Z,9.747494
2024-05-09T03:08:56.269Z,9.747462
2024-05-09T03:09:56.266Z,9.747452
2024-05-09T03:10:56.316Z,9.747403
2024-05-09T03:11:56.322Z,9.747374
2024-05-09T03:12:56.243Z,9.747533
2024-05-09T03:13:56.273Z,9.747575
2024-05-09T03:14:56.227Z,9.747430
2024-05-09T03:15:56.252Z,9.747502
2024-05-09T03:16:56.241Z,9.747556
2024-05-09T03:17:56.462Z,9.747396
2024-05-09T03:18:56.281Z,9.747387
2024-05-09T03:19:56.243Z,9.747397
2024-05-09T03:20:56.249Z,9.747392
2024-05-09T03:21:56.186Z,9.747373
2024-05-09T03:22:57.107Z,9.747411
2024-05-09T03:23:57.198Z,9.747334
2024-05-09T03:24:56.190Z,9.747375
2024-05-09T03:25:56.216Z,9.747449
2024-05-09T03:26:56.136Z,9.747448
2024-05-09T03:27:56.137Z,9.747405
2024-05-09T03:28:56.175Z,9.747446
2024-05-09T03:29:56.144Z,9.747368
2024-05-09T03:30:57.142Z,9.747435
2024-05-09T03:31:56.218Z,9.747453
2024-05-09T03:32:56.262Z,9.747415
2024-05-09T03:33:56.178Z,9.747387
2024-05-09T03:34:56.117Z,9.747405
2024-05-09T03:35:56.075Z,9.747385
2024-05-09T03:36:56.064Z,9.747408
2024-05-09T03:37:56.102Z,9.747458
2024-05-09T03:38:56.188Z,9.747460
2024-05-09T03:39:56.071Z,9.747477
2024-05-09T03:40:56.100Z,9.747445
2024-05-09T03:41:56.029Z,9.747420
2024-05-09T03:42:56.018Z,9.747427
2024-05-09T03:43:56.039Z,9.747573
2024-05-09T03:44:56.031Z,9.747396
2024-05-09T03:45:55.996Z,9.747466
2024-05-09T03:46:56.008Z,9.747389
2024-05-09T03:47:56.198Z,9.747502
2024-05-09T03:48:56.123Z,9.747386
2024-05-09T03:49:56.051Z,9.747339
2024-05-09T03:50:55.996Z,9.747248
2024-05-09T03:51:55.949Z,9.747378
2024-05-09T03:52:55.966Z,9.747415
2024-05-09T03:53:55.962Z,9.747330
2024-05-09T03:54:55.982Z,9.747283
2024-05-09T03:55:55.947Z,9.747338
2024-05-09T03:56:55.915Z,9.747341
2024-05-09T03:57:55.905Z,9.747437
2024-05-09T03:58:55.937Z,9.747350
2024-05-09T03:59:55.891Z,9.747384
2024-05-09T04:00:55.924Z,9.747340
2024-05-09T04:01:56.065Z,9.747266
2024-05-09T04:02:55.995Z,9.747264
2024-05-09T04:03:56.008Z,9.747291
2024-05-09T04:04:55.886Z,9.747158
2024-05-09T04:05:55.849Z,9.747293
2024-05-09T04:06:55.833Z,9.747383
2024-05-09T04:07:55.911Z,9.747405
2024-05-09T04:08:55.847Z,9.747381
2024-05-09T04:09:56.813Z,9.747377
2024-05-09T04:10:55.815Z,9.747455
2024-05-09T04:11:55.964Z,9.747409
2024-05-09T04:12:55.828Z,9.747415
2024-05-09T04:13:55.866Z,9.747401
2024-05-09T04:14:55.772Z,9.747333
2024-05-09T04:15:55.767Z,9.747278
2024-05-09T04:16:55.804Z,9.747327
2024-05-09T04:17:56.117Z,9.747330
2024-05-09T04:18:55.834Z,9.747418
2024-05-09T04:19:55.748Z,9.747350
2024-05-09T04:20:55.798Z,9.747413
2024-05-09T04:21:55.748Z,9.747428
2024-05-09T04:22:55.877Z,9.747493
2024-05-09T04:23:55.700Z,9.747536
2024-05-09T04:24:55.703Z,9.747543
2024-05-09T04:25:55.704Z,9.747446
2024-05-09T04:26:56.702Z,9.747536
2024-05-09T04:27:55.766Z,9.747309
2024-05-09T04:28:55.690Z,9.747388
2024-05-09T04:29:55.677Z,9.747435
2024-05-09T04:30:55.661Z,9.747481
2024-05-09T04:31:55.746Z,9.747429
2024-05-09T04:32:55.834Z,9.747499
2024-05-09T04:33:55.754Z,9.747363
2024-05-09T04:34:55.697Z,9.747443
2024-05-09T04:35:55.630Z,9.747432
2024-05-09T04:36:55.645Z,9.747478
2024-05-09T04:37:55.624Z,9.747530
2024-05-09T04:38:55.602Z,9.747516
2024-05-09T04:39:55.598Z,9.747484
2024-05-09T04:40:55.702Z,9.747516
2024-05-09T04:41:55.607Z,9.747566
2024-05-09T04:42:55.579Z,9.747408
2024-05-09T04:43:55.590Z,9.747317
2024-05-09T04:44:58.696Z,9.747341
2024-05-09T04:45:56.593Z,9.747479
2024-05-09T04:46:55.606Z,9.747377
2024-05-09T04:47:55.827Z,9.747581
2024-05-09T04:48:55.603Z,9.747616
2024-05-09T04:49:55.585Z,9.747436
2024-05-09T04:50:55.565Z,9.747298
2024-05-09T04:51:55.496Z,9.747542
2024-05-09T04:52:55.562Z,9.747431
2024-05-09T04:53:55.485Z,9.747454
2024-05-09T04:54:58.539Z,9.747522
2024-05-09T04:55:55.549Z,9.747367
2024-05-09T04:56:55.483Z,9.747340
2024-05-09T04:57:55.450Z,9.747361
2024-05-09T04:58:55.504Z,9.747365
2024-05-09T04:59:55.464Z,9.747519
2024-05-09T05:00:55.536Z,9.747405
2024-05-09T05:01:55.548Z,9.747461
2024-05-09T05:02:55.531Z,9.747353
2024-05-09T05:03:56.235Z,9.747362
2024-05-09T05:04:56.496Z,9.747441
2024-05-09T05:05:55.531Z,9.747402
2024-05-09T05:06:56.027Z,9.747479
2024-05-09T05:07:55.404Z,9.747429
2024-05-09T05:08:55.389Z,9.747395
2024-05-09T05:09:55.385Z,9.747439
2024-05-09T05:10:55.519Z,9.747363
2024-05-09T05:11:55.661Z,9.747373
2024-05-09T05:12:55.330Z,9.747420
2024-05-09T05:13:55.389Z,9.747375
2024-05-09T05:14:55.319Z,9.747414
2024-05-09T05:15:55.502Z,9.747482
2024-05-09T05:16:55.354Z,9.747418
2024-05-09T05:17:55.449Z,9.747513
2024-05-09T05:18:55.396Z,9.747463
2024-05-09T05:19:55.373Z,9.747432
2024-05-09T05:20:55.319Z,9.747408
2024-05-09T05:21:55.269Z,9.747487
2024-05-09T05:22:55.309Z,9.747549
2024-05-09T05:23:55.272Z,9.747482
2024-05-09T05:24:55.258Z,9.747487
2024-05-09T05:25:55.695Z,9.747387
2024-05-09T05:26:55.226Z,9.747476
2024-05-09T05:27:55.304Z,9.747507
2024-05-09T05:28:55.270Z,9.747483
2024-05-09T05:29:55.209Z,9.747478
2024-05-09T05:30:55.236Z,9.747363
2024-05-09T05:31:55.305Z,9.747425
2024-05-09T05:32:55.387Z,9.747453
2024-05-09T05:33:55.241Z,9.747503
2024-05-09T05:34:55.225Z,9.747437
2024-05-09T05:35:55.157Z,9.747383
2024-05-09T05:36:55.174Z,9.747445
2024-05-09T05:37:55.290Z,9.747498
2024-05-09T05:38:55.215Z,9.747476
2024-05-09T05:39:55.138Z,9.747475
2024-05-09T05:40:55.325Z,9.747401
2024-05-09T05:41:56.100Z,9.747445
2024-05-09T05:42:55.136Z,9.747478
2024-05-09T05:43:55.136Z,9.747451
2024-05-09T05:44:55.097Z,9.747518
2024-05-09T05:45:55.089Z,9.747568
2024-05-09T05:46:55.188Z,9.747575
2024-05-09T05:47:55.426Z,9.747461
2024-05-09T05:48:55.248Z,9.747423
2024-05-09T05:49:55.076Z,9.747481
2024-05-09T05:50:55.110Z,9.747618
2024-05-09T05:51:55.071Z,9.747531
2024-05-09T05:52:55.069Z,9.747460
2024-05-09T05:53:55.032Z,9.747562
2024-05-09T05:54:55.030Z,9.747606
2024-05-09T05:55:55.114Z,9.747612
2024-05-09T05:56:55.097Z,9.747580
2024-05-09T05:57:55.013Z,9.747640
2024-05-09T05:58:55.003Z,9.747741
2024-05-09T05:59:54.997Z,9.747661
2024-05-09T06:00:55.936Z,9.747397
2024-05-09T06:01:55.038Z,9.747452
2024-05-09T06:02:55.269Z,9.747440
2024-05-09T06:03:55.100Z,9.747384
2024-05-09T06:04:55.116Z,9.747417
2024-05-09T06:05:55.024Z,9.747439
2024-05-09T06:06:54.934Z,9.747502
2024-05-09T06:07:54.976Z,9.747519
2024-05-09T06:08:55.937Z,9.747572
2024-05-09T06:09:54.901Z,9.747542
2024-05-09T06:10:54.996Z,9.747487
2024-05-09T06:11:54.956Z,9.747521
2024-05-09T06:12:54.880Z,9.747514
2024-05-09T06:13:54.908Z,9.747496
2024-05-09T06:14:54.892Z,9.747553
2024-05-09T06:15:54.891Z,9.747618
2024-05-09T06:16:58.106Z,9.747659
2024-05-09T06:17:55.976Z,9.747660
2024-05-09T06:18:54.975Z,9.747591
2024-05-09T06:19:54.999Z,9.747655
2024-05-09T06:20:54.955Z,9.747357
2024-05-09T06:21:54.831Z,9.747468
2024-05-09T06:22:54.823Z,9.747434
2024-05-09T06:23:54.794Z,9.747576
2024-05-09T06:24:54.822Z,9.747615
2024-05-09T06:25:54.838Z,9.747428
2024-05-09T06:26:54.782Z,9.747334
2024-05-09T06:27:54.767Z,9.747429
2024-05-09T06:28:54.868Z,9.747463
2024-05-09T06:29:54.783Z,9.747476
2024-05-09T06:30:54.743Z,9.747420
2024-05-09T06:31:56.525Z,9.747390
2024-05-09T06:32:54.894Z,9.747394
2024-05-09T06:33:54.894Z,9.747335
2024-05-09T06:34:54.788Z,9.747581
2024-05-09T06:35:54.705Z,9.747519
2024-05-09T06:36:54.734Z,9.747437
2024-05-09T06:37:54.794Z,9.747485
2024-05-09T06:38:54.708Z,9.747419
2024-05-09T06:39:54.701Z,9.747400
2024-05-09T06:40:54.703Z,9.747328
2024-05-09T06:41:54.658Z,9.747442
2024-05-09T06:42:54.661Z,9.747581
2024-05-09T06:43:54.701Z,9.747272
2024-05-09T06:44:54.637Z,9.747483
2024-05-09T06:45:54.625Z,9.747491
2024-05-09T06:46:58.111Z,9.747541
2024-05-09T06:47:55.838Z,9.747464
2024-05-09T06:48:54.771Z,9.747645
2024-05-09T06:49:54.651Z,9.747635
2024-05-09T06:50:54.612Z,9.747652
2024-05-09T06:51:54.587Z,9.747597
2024-05-09T06:52:55.310Z,9.747508
2024-05-09T06:53:54.592Z,9.747437
2024-05-09T06:54:54.560Z,9.747335
2024-05-09T06:55:54.607Z,9.747422
2024-05-09T06:56:54.558Z,9.747147
2024-05-09T06:57:54.595Z,9.747369
2024-05-09T06:58:54.603Z,9.747176
2024-05-09T06:59:54.520Z,9.747470
2024-05-09T07:00:54.527Z,9.747396
2024-05-09T07:01:54.522Z,9.747453
2024-05-09T07:02:54.686Z,9.747459
2024-05-09T07:03:54.627Z,9.747516
2024-05-09T07:04:54.693Z,9.747408
2024-05-09T07:05:54.514Z,9.747524
2024-05-09T07:06:55.480Z,9.747491
2024-05-09T07:07:54.568Z,9.747346
2024-05-09T07:08:54.512Z,9.747709
2024-05-09T07:09:54.459Z,9.747518
2024-05-09T07:10:54.538Z,9.747577
2024-05-09T07:11:55.574Z,9.747465
2024-05-09T07:12:55.468Z,9.747396
2024-05-09T07:13:54.456Z,9.747316
2024-05-09T07:14:54.415Z,9.747227
2024-05-09T07:15:54.423Z,9.747473
2024-05-09T07:16:54.532Z,9.747492
2024-05-09T07:17:54.517Z,9.747467
2024-05-09T07:18:54.621Z,9.747329
2024-05-09T07:19:54.404Z,9.747288
2024-05-09T07:20:54.403Z,9.747343
2024-05-09T07:21:54.399Z,9.747491
2024-05-09T07:22:54.419Z,9.747501
2024-05-09T07:23:54.447Z,9.747447
2024-05-09T07:24:54.425Z,9.747653
2024-05-09T07:25:54.436Z,9.747480
2024-05-09T07:26:54.364Z,9.747354
2024-05-09T07:27:54.316Z,9.747441
2024-05-09T07:28:54.355Z,9.747375
2024-05-09T07:29:54.310Z,9.747432
2024-05-09T07:30:54.315Z,9.747356
2024-05-09T07:31:54.338Z,9.747365
2024-05-09T07:32:54.418Z,9.747355
2024-05-09T07:33:54.398Z,9.747433
2024-05-09T07:34:54.313Z,9.747361
2024-05-09T07:35:54.283Z,9.747414
2024-05-09T07:36:54.243Z,9.747397
2024-05-09T07:37:54.343Z,9.747463
2024-05-09T07:38:54.245Z,9.747419
2024-05-09T07:39:54.258Z,9.747434
2024-05-09T07:40:54.292Z,9.747406
2024-05-09T07:41:54.214Z,9.747426
2024-05-09T07:42:54.216Z,9.747413
2024-05-09T07:43:54.208Z,9.747402
2024-05-09T07:44:55.512Z,9.747410
2024-05-09T07:45:56.121Z,9.747364
2024-05-09T07:48:13.752Z,9.747305
2024-05-09T07:49:44.190Z,9.747326
2024-05-09T07:50:35.250Z,9.747337
2024-05-09T07:52:38.640Z,9.747381
2024-05-09T07:53:21.788Z,9.747447
2024-05-09T07:53:58.265Z,9.747411
2024-05-09T07:54:55.267Z,9.747401
2024-05-09T07:55:54.521Z,9.747457
2024-05-09T07:56:54.735Z,9.747330
2024-05-09T07:57:54.117Z,9.747382
2024-05-09T07:58:54.495Z,9.747409
2024-05-09T07:59:54.103Z,9.747306
2024-05-09T08:00:54.171Z,9.747409
2024-05-09T08:01:54.099Z,9.747369
2024-05-09T08:02:54.096Z,9.747373
2024-05-09T08:03:54.403Z,9.747327
2024-05-09T08:04:54.126Z,9.747225
2024-05-09T08:05:55.097Z,9.747326
2024-05-09T08:06:54.054Z,9.747482
2024-05-09T08:07:54.035Z,9.747428
2024-05-09T08:08:54.041Z,9.747391
2024-05-09T08:09:54.032Z,9.747369
2024-05-09T08:10:54.052Z,9.747460
2024-05-09T08:11:54.086Z,9.747235
2024-05-09T08:12:54.075Z,9.747237
2024-05-09T08:13:54.002Z,9.747387
2024-05-09T08:14:53.955Z,9.747371
2024-05-09T08:15:53.997Z,9.747420
2024-05-09T08:16:53.976Z,9.747547
2024-05-09T08:17:54.023Z,9.747399
2024-05-09T08:18:54.008Z,9.747402
2024-05-09T08:19:53.939Z,9.747526
2024-05-09T08:20:53.951Z,9.747475
2024-05-09T08:21:54.052Z,9.747381
2024-05-09T08:22:54.023Z,9.747337
2024-05-09T08:23:53.892Z,9.747407
2024-05-09T08:24:53.890Z,9.747413
2024-05-09T08:25:53.872Z,9.747340
2024-05-09T08:26:53.859Z,9.747425
2024-05-09T08:27:53.901Z,9.747334
2024-05-09T08:28:53.850Z,9.747330
2024-05-09T08:29:53.950Z,9.747410
2024-05-09T08:30:54.078Z,9.747353
2024-05-09T08:31:53.890Z,9.747292
2024-05-09T08:32:54.064Z,9.747342
2024-05-09T08:33:53.883Z,9.747358
2024-05-09T08:34:53.919Z,9.747398
2024-05-09T08:35:53.810Z,9.747357
2024-05-09T08:36:54.231Z,9.747304
2024-05-09T08:37:53.880Z,9.747352
2024-05-09T08:38:53.766Z,9.747384
2024-05-09T08:39:53.808Z,9.747482
2024-05-09T08:40:53.839Z,9.747500
2024-05-09T08:41:53.782Z,9.747499
2024-05-09T08:42:53.813Z,9.747383
2024-05-09T08:43:53.734Z,9.747358
2024-05-09T08:44:53.753Z,9.747453
2024-05-09T08:45:53.754Z,9.747477
2024-05-09T08:46:53.772Z,9.747549
2024-05-09T08:47:53.792Z,9.747334
2024-05-09T08:48:53.994Z,9.747387
2024-05-09T08:49:53.836Z,9.747472
2024-05-09T08:50:53.887Z,9.747481
2024-05-09T08:51:53.769Z,9.747419
2024-05-09T08:52:53.664Z,9.747410
2024-05-09T08:53:53.657Z,9.747472
2024-05-09T08:54:53.739Z,9.747467
2024-05-09T08:55:53.678Z,9.747435
2024-05-09T08:56:53.664Z,9.747456
2024-05-09T08:57:53.709Z,9.747474
2024-05-09T08:58:53.669Z,9.747407
2024-05-09T08:59:53.613Z,9.747433
2024-05-09T09:00:53.774Z,9.747448
2024-05-09T09:01:53.751Z,9.747529
2024-05-09T09:02:53.636Z,9.747505
2024-05-09T09:03:53.801Z,9.747497
2024-05-09T09:04:53.679Z,9.747483
2024-05-09T09:05:53.665Z,9.747491
2024-05-09T09:06:56.328Z,9.747449
2024-05-09T09:07:53.565Z,9.747402
2024-05-09T09:08:53.560Z,9.747417
2024-05-09T09:09:53.611Z,9.747472
2024-05-09T09:10:53.707Z,9.747451
2024-05-09T09:11:53.566Z,9.747428
2024-05-09T09:12:53.572Z,9.747422
2024-05-09T09:13:53.523Z,9.747447
2024-05-09T09:14:53.536Z,9.747442
2024-05-09T09:15:53.565Z,9.747510
2024-05-09T09:16:53.505Z,9.747540
2024-05-09T09:17:53.570Z,9.747427
2024-05-09T09:18:53.614Z,9.747411
2024-05-09T09:19:53.531Z,9.747434
2024-05-09T09:20:53.483Z,9.747417
2024-05-09T09:21:53.517Z,9.747459
2024-05-09T09:22:53.449Z,9.747488
2024-05-09T09:23:53.435Z,9.747432
2024-05-09T09:24:53.465Z,9.747458
2024-05-09T09:25:53.462Z,9.747426
2024-05-09T09:26:53.415Z,9.747422
2024-05-09T09:27:53.439Z,9.747519
2024-05-09T09:28:53.414Z,9.747444
2024-05-09T09:29:53.381Z,9.747414
2024-05-09T09:30:53.425Z,9.747377
2024-05-09T09:31:53.369Z,9.747437
2024-05-09T09:32:53.407Z,9.747482
2024-05-09T09:33:53.656Z,9.747428
2024-05-09T09:34:53.395Z,9.747489
2024-05-09T09:35:53.362Z,9.747485
2024-05-09T09:36:53.338Z,9.747400
2024-05-09T09:37:53.323Z,9.747454
2024-05-09T09:38:53.325Z,9.747405
2024-05-09T09:39:53.356Z,9.747373
2024-05-09T09:40:53.345Z,9.747409
2024-05-09T09:41:53.308Z,9.747534
2024-05-09T09:42:53.415Z,9.747397
2024-05-09T09:43:53.277Z,9.747425
2024-05-09T09:45:02.108Z,9.747436
2024-05-09T09:45:55.454Z,9.747434
2024-05-09T09:46:53.300Z,9.747460
2024-05-09T09:47:53.375Z,9.747430
2024-05-09T09:48:53.355Z,9.747570
2024-05-09T09:49:53.297Z,9.747487
2024-05-09T09:50:53.218Z,9.747516
2024-05-09T09:51:53.243Z,9.747384
2024-05-09T09:52:53.213Z,9.747449
2024-05-09T09:53:53.226Z,9.747472
2024-05-09T09:54:53.275Z,9.747328
2024-05-09T09:55:53.182Z,9.747444
2024-05-09T09:56:53.185Z,9.747528
2024-05-09T09:57:53.192Z,9.747446
2024-05-09T09:58:53.245Z,9.747345
2024-05-09T09:59:53.151Z,9.747549
2024-05-09T10:00:53.250Z,9.747479
2024-05-09T10:01:53.265Z,9.747417
2024-05-09T10:02:53.191Z,9.747360
2024-05-09T10:03:53.369Z,9.747277
2024-05-09T10:04:53.246Z,9.747359
2024-05-09T10:05:53.144Z,9.747371
2024-05-09T10:06:53.173Z,9.747460
2024-05-09T10:07:53.121Z,9.747549
2024-05-09T10:08:54.003Z,9.747633
2024-05-09T10:09:53.155Z,9.747519
2024-05-09T10:10:53.271Z,9.747488
2024-05-09T10:11:59.693Z,9.747644
2024-05-09T10:12:54.131Z,9.747564
2024-05-09T10:13:53.061Z,9.747484
2024-05-09T10:14:53.053Z,9.747412
2024-05-09T10:15:54.584Z,9.747447
2024-05-09T10:16:53.030Z,9.747353
2024-05-09T10:17:53.326Z,9.747480
2024-05-09T10:18:53.177Z,9.747462
2024-05-09T10:19:53.111Z,9.747406
2024-05-09T10:20:53.091Z,9.747459
2024-05-09T10:21:53.078Z,9.747567
2024-05-09T10:22:53.006Z,9.747324
2024-05-09T10:23:52.963Z,9.747316
2024-05-09T10:24:53.108Z,9.747405
2024-05-09T10:25:53.010Z,9.747515
2024-05-09T10:26:53.028Z,9.747546
2024-05-09T10:27:53.183Z,9.747395
2024-05-09T10:28:52.929Z,9.747457
2024-05-09T10:29:53.924Z,9.747587
2024-05-09T10:30:52.959Z,9.747435
2024-05-09T10:31:53.018Z,9.747470
2024-05-09T10:32:53.062Z,9.747536
2024-05-09T10:33:53.407Z,9.747446
2024-05-09T10:34:53.069Z,9.747392
2024-05-09T10:35:52.894Z,9.747450
2024-05-09T10:36:53.909Z,9.747493
2024-05-09T10:37:52.924Z,9.747394
2024-05-09T10:38:52.920Z,9.747321
2024-05-09T10:39:52.882Z,9.747285
2024-05-09T10:40:52.913Z,9.747403
2024-05-09T10:41:53.794Z,9.747412
2024-05-09T10:42:53.004Z,9.747416
2024-05-09T10:43:52.827Z,9.747440
2024-05-09T10:44:52.838Z,9.747422
2024-05-09T10:45:54.205Z,9.747391
2024-05-09T10:46:52.923Z,9.747448
2024-05-09T10:47:52.917Z,9.747441
2024-05-09T10:48:52.859Z,9.747416
2024-05-09T10:49:52.902Z,9.747489
2024-05-09T10:50:52.788Z,9.747428
2024-05-09T10:51:52.804Z,9.747432
2024-05-09T10:52:52.744Z,9.747525
2024-05-09T10:53:52.776Z,9.747374
2024-05-09T10:54:52.828Z,9.747420
2024-05-09T10:55:52.764Z,9.747513
2024-05-09T10:56:52.710Z,9.747463
2024-05-09T10:57:52.707Z,9.747484
2024-05-09T10:58:52.722Z,9.747445
2024-05-09T10:59:52.687Z,9.747443
2024-05-09T11:00:52.786Z,9.747470
2024-05-09T11:01:52.694Z,9.747487
2024-05-09T11:02:52.744Z,9.747564
2024-05-09T11:03:52.878Z,9.747603
2024-05-09T11:04:52.875Z,9.747563
2024-05-09T11:05:52.759Z,9.747496
2024-05-09T11:06:52.655Z,9.747446
2024-05-09T11:07:52.624Z,9.747480
2024-05-09T11:08:52.610Z,9.747480
2024-05-09T11:09:52.686Z,9.747404
2024-05-09T11:10:52.763Z,9.747360
2024-05-09T11:11:52.684Z,9.747386
2024-05-09T11:12:52.767Z,9.747411
2024-05-09T11:13:52.589Z,9.747348
2024-05-09T11:14:52.606Z,9.747406
2024-05-09T11:15:52.584Z,9.747337
2024-05-09T11:16:52.560Z,9.747238
2024-05-09T11:17:52.742Z,9.747250
2024-05-09T11:18:52.839Z,9.747300
2024-05-09T11:19:52.736Z,9.747306
2024-05-09T11:20:52.530Z,9.747363
2024-05-09T11:21:52.622Z,9.747334
2024-05-09T11:22:52.509Z,9.747348
2024-05-09T11:23:52.525Z,9.747386
2024-05-09T11:24:53.577Z,9.747386
2024-05-09T11:25:52.492Z,9.747335
2024-05-09T11:26:52.484Z,9.747274
2024-05-09T11:27:52.506Z,9.747377
2024-05-09T11:28:52.487Z,9.747390
2024-05-09T11:29:52.459Z,9.747481
2024-05-09T11:30:52.494Z,9.747484
2024-05-09T11:31:52.469Z,9.747446
2024-05-09T11:32:52.490Z,9.747442
2024-05-09T11:33:53.528Z,9.747426
2024-05-09T11:34:52.410Z,9.747376
2024-05-09T11:35:52.400Z,9.747432
2024-05-09T11:36:52.435Z,9.747356
2024-05-09T11:37:52.415Z,9.747390
2024-05-09T11:38:52.423Z,9.747357
2024-05-09T11:39:52.407Z,9.747361
2024-05-09T11:40:52.460Z,9.747322
2024-05-09T11:41:52.359Z,9.747371
2024-05-09T11:42:53.491Z,9.747344
2024-05-09T11:43:53.364Z,9.747334
2024-05-09T11:44:52.338Z,9.747404
2024-05-09T11:45:52.348Z,9.747332
2024-05-09T11:46:52.407Z,9.747422